KEYW/EYW METAR and TAF weather

Enter ICAO airport designator
Station Type Date Time Source
KEYW METAR 2021/09/25 02:53 UTC NOAA

KEYW 250253Z AUTO 00000KT 10SM CLR 28/25 A2997 RMK AO2 SLP150 T02830250 53008


Station Type Date Time Source
KEYW Decoded METAR 2021/09/25 02:53 UTC NOAA

KEY WEST INTERNATIONAL AIRPORT , FL, United States (KEYW) 24-33N 81-46W 5M
Sep 24, 2021 - 10:53 PM EDT / 2021.09.25 0253 UTC
Wind: Calm:0
Visibility: 10 mile(s):0
Sky conditions: clear
Temperature: 82.9 F (28.3 C)
Dew Point: 77.0 F (25.0 C)
Relative Humidity: 82%
Pressure (altimeter): 29.97 in. Hg (1014 hPa)
Pressure tendency: 0.02 inches (0.8 hPa) higher than three hours ago
ob: KEYW 250253Z AUTO 00000KT 10SM CLR 28/25 A2997 RMK AO2 SLP150 T02830250 53008
cycle: 3

Station Type Date Time Source
KEYW TAF 2021/09/24 18:30 UTC NOAA

TAF KEYW 241729Z 2418/2518 16004KT P6SM VCSH SCT025
FM242200 VRB04KT P6SM SCT020

Example: see airport list